createdAt,value
2018-05-04T00:00:56.850Z,100918.21
2018-05-04T00:03:25.149Z,100913.72
2018-05-04T00:05:53.463Z,100909.73
2018-05-04T00:08:22.525Z,100901.92
2018-05-04T00:10:51.725Z,100912.17
2018-05-04T00:13:20.856Z,100912.22
2018-05-04T00:15:49.891Z,100916.49
2018-05-04T00:18:18.193Z,100920.47
2018-05-04T00:20:46.506Z,100921.11
2018-05-04T00:23:15.551Z,100928.56
2018-05-04T00:25:43.849Z,100931.94
2018-05-04T00:28:12.118Z,100933.34
2018-05-04T00:30:44.463Z,100937.58
2018-05-04T00:33:12.762Z,100943.69
2018-05-04T00:35:41.125Z,100948.21
2018-05-04T00:38:09.402Z,100942.88
2018-05-04T00:40:37.707Z,100947.23
2018-05-04T00:43:05.976Z,100943.77
2018-05-04T00:45:34.272Z,100946.57
2018-05-04T00:48:02.574Z,100943.48
2018-05-04T00:50:31.631Z,100940.61
2018-05-04T00:52:59.912Z,100948.46
2018-05-04T00:55:28.222Z,100952.06
2018-05-04T00:57:57.269Z,100957.55
2018-05-04T01:00:25.577Z,100957.05
2018-05-04T01:02:53.873Z,100967.66
2018-05-04T01:05:23.061Z,100958.47
2018-05-04T01:07:51.328Z,100964.12
2018-05-04T01:10:20.071Z,100977.27
2018-05-04T01:12:48.358Z,100978.14
2018-05-04T01:15:16.667Z,100984.80
2018-05-04T01:17:44.985Z,100979.37
2018-05-04T01:20:13.301Z,100984.70
2018-05-04T01:22:41.611Z,100988.29
2018-05-04T01:25:10.837Z,100990.30
2018-05-04T01:27:39.166Z,100984.94
2018-05-04T01:30:07.485Z,100990.05
2018-05-04T01:32:36.516Z,100985.66
2018-05-04T01:35:04.857Z,100993.11
2018-05-04T01:37:33.955Z,100992.38
2018-05-04T01:40:03.004Z,100986.50
2018-05-04T01:42:31.317Z,100992.07
2018-05-04T01:45:00.931Z,100988.09
2018-05-04T01:47:29.973Z,100996.19
2018-05-04T01:49:58.277Z,100995.43
2018-05-04T01:52:26.593Z,100997.55
2018-05-04T01:54:58.871Z,100999.72
2018-05-04T01:57:27.196Z,101001.42
2018-05-04T01:59:55.722Z,100991.05
2018-05-04T02:02:24.618Z,100988.41
2018-05-04T02:04:53.184Z,100991.16
2018-05-04T02:07:22.758Z,100983.33
2018-05-04T02:09:51.243Z,100989.87
2018-05-04T02:12:20.170Z,100980.82
2018-05-04T02:14:49.260Z,101001.48
2018-05-04T02:17:18.320Z,101002.36
2018-05-04T02:19:46.669Z,101002.77
2018-05-04T02:22:15.129Z,101007.47
2018-05-04T02:24:43.420Z,101015.20
2018-05-04T02:27:11.717Z,101014.88
2018-05-04T02:29:39.992Z,101001.64
2018-05-04T02:32:08.329Z,101001.67
2018-05-04T02:34:37.432Z,101000.45
2018-05-04T02:37:05.731Z,101009.02
2018-05-04T02:39:34.130Z,101014.57
2018-05-04T02:42:02.413Z,101009.17
2018-05-04T02:44:30.744Z,101000.66
2018-05-04T02:46:59.094Z,100997.67
2018-05-04T02:49:27.403Z,100995.68
2018-05-04T02:51:55.806Z,100996.35
2018-05-04T02:54:24.298Z,100995.66
2018-05-04T02:56:53.044Z,100996.18
2018-05-04T02:59:21.508Z,101001.52
2018-05-04T03:01:50.088Z,101000.61
2018-05-04T03:04:18.847Z,101000.70
2018-05-04T03:06:47.464Z,100998.33
2018-05-04T03:09:15.790Z,100996.51
2018-05-04T03:11:44.098Z,100999.38
2018-05-04T03:14:12.414Z,100995.59
2018-05-04T03:16:41.450Z,100991.95
2018-05-04T03:19:09.789Z,100989.26
2018-05-04T03:21:38.060Z,100985.70
2018-05-04T03:24:07.145Z,100986.44
2018-05-04T03:26:35.407Z,100981.33
2018-05-04T03:29:03.717Z,100985.06
2018-05-04T03:31:32.883Z,100980.19
2018-05-04T03:34:01.170Z,100976.55
2018-05-04T03:36:29.484Z,100975.13
2018-05-04T03:38:57.820Z,100976.22
2018-05-04T03:41:26.112Z,100975.40
2018-05-04T03:43:55.171Z,100981.19
2018-05-04T03:46:23.454Z,100966.00
2018-05-04T03:48:51.857Z,100970.79
2018-05-04T03:51:20.191Z,100972.28
2018-05-04T03:53:48.469Z,100980.63
2018-05-04T03:56:16.767Z,100976.16
2018-05-04T03:59:02.731Z,100979.80
2018-05-04T04:01:48.867Z,100984.00
2018-05-04T04:04:17.167Z,100979.78
2018-05-04T04:06:46.206Z,100977.05
2018-05-04T04:09:14.540Z,100983.33
2018-05-04T04:11:43.589Z,100989.35
2018-05-04T04:14:11.864Z,100987.58
2018-05-04T04:16:40.228Z,100990.08
2018-05-04T04:19:09.233Z,100991.03
2018-05-04T04:21:37.618Z,100990.95
2018-05-04T04:24:05.934Z,100995.27
2018-05-04T04:26:34.999Z,100995.17
2018-05-04T04:29:03.376Z,100993.45
2018-05-04T04:31:31.688Z,101007.16
2018-05-04T04:34:00.745Z,101007.86
2018-05-04T04:36:29.036Z,101014.48
2018-05-04T04:38:57.520Z,101015.81
2018-05-04T04:41:25.915Z,101014.98
2018-05-04T04:43:54.325Z,101018.92
2018-05-04T04:46:22.850Z,101020.50
2018-05-04T04:48:51.835Z,101028.33
2018-05-04T04:51:21.001Z,101030.98
2018-05-04T04:53:49.472Z,101016.98
2018-05-04T04:56:18.518Z,101017.55
2018-05-04T04:58:46.830Z,101035.80
2018-05-04T05:01:15.913Z,101045.02
2018-05-04T05:03:44.295Z,101049.48
2018-05-04T05:06:12.599Z,101048.92
2018-05-04T05:08:40.987Z,101052.82
2018-05-04T05:11:09.322Z,101048.09
2018-05-04T05:13:37.633Z,101043.33
2018-05-04T05:16:06.688Z,101045.10
2018-05-04T05:18:34.992Z,101050.11
2018-05-04T05:21:04.091Z,101057.69
2018-05-04T05:23:33.151Z,101058.36
2018-05-04T05:26:01.465Z,101055.98
2018-05-04T05:28:30.537Z,101056.88
2018-05-04T05:30:58.976Z,101047.14
2018-05-04T05:33:27.274Z,101055.62
2018-05-04T05:35:55.687Z,101058.30
2018-05-04T05:38:24.769Z,101067.37
2018-05-04T05:40:53.179Z,101064.81
2018-05-04T05:43:22.306Z,101080.10
2018-05-04T05:45:51.504Z,101080.41
2018-05-04T05:48:19.899Z,101083.41
2018-05-04T05:50:48.231Z,101086.97
2018-05-04T05:53:17.557Z,101084.64
2018-05-04T05:55:45.956Z,101092.52
2018-05-04T05:58:14.250Z,101093.58
2018-05-04T06:00:42.572Z,101092.66
2018-05-04T06:03:17.281Z,101095.58
2018-05-04T06:05:45.613Z,101099.41
2018-05-04T06:08:18.364Z,101089.95
2018-05-04T06:10:52.600Z,101097.81
2018-05-04T06:13:20.918Z,101090.00
2018-05-04T06:15:49.366Z,101092.88
2018-05-04T06:18:23.697Z,101085.98
2018-05-04T06:20:52.067Z,101094.27
2018-05-04T06:23:20.784Z,101094.21
2018-05-04T06:25:50.348Z,101092.92
2018-05-04T06:28:19.789Z,101093.83
2018-05-04T06:30:48.242Z,101096.23
2018-05-04T06:33:17.072Z,101091.14
2018-05-04T06:35:45.409Z,101093.68
2018-05-04T06:38:13.710Z,101092.56
2018-05-04T06:40:42.015Z,101097.66
2018-05-04T06:43:15.031Z,101096.16
2018-05-04T06:45:44.261Z,101102.59
2018-05-04T06:48:15.543Z,101101.72
2018-05-04T06:50:48.247Z,101095.84
2018-05-04T06:53:16.568Z,101101.34
2018-05-04T06:55:44.864Z,101104.89
2018-05-04T06:58:16.071Z,101098.40
2018-05-04T07:00:44.752Z,101095.02
2018-05-04T07:03:13.134Z,101096.98
2018-05-04T07:05:42.209Z,101108.72
2018-05-04T07:08:11.289Z,101105.58
2018-05-04T07:10:40.376Z,101103.55
2018-05-04T07:13:08.760Z,101097.26
2018-05-04T07:15:37.601Z,101105.88
2018-05-04T07:18:10.303Z,101106.06
2018-05-04T07:20:40.293Z,101101.63
2018-05-04T07:23:14.096Z,101103.41
2018-05-04T07:25:42.770Z,101101.75
2018-05-04T07:28:12.396Z,101101.73
2018-05-04T07:30:41.030Z,101099.57
2018-05-04T07:33:09.481Z,101098.50
2018-05-04T07:35:37.828Z,101096.91
2018-05-04T07:38:07.103Z,101098.22
2018-05-04T07:40:40.336Z,101092.02
2018-05-04T07:43:08.713Z,101089.61
2018-05-04T07:45:36.934Z,101089.55
2018-05-04T07:48:09.639Z,101091.86
2018-05-04T07:50:37.933Z,101095.67
2018-05-04T07:53:07.121Z,101088.75
2018-05-04T07:55:36.195Z,101088.05
2018-05-04T07:58:04.939Z,101080.92
2018-05-04T08:00:37.568Z,101081.89
2018-05-04T08:03:06.016Z,101092.57
2018-05-04T08:05:34.297Z,101090.49
2018-05-04T08:08:02.805Z,101091.09
2018-05-04T08:10:32.899Z,101088.07
2018-05-04T08:13:02.208Z,101080.03
2018-05-04T08:15:31.529Z,101081.88
2018-05-04T08:18:00.604Z,101088.38
2018-05-04T08:20:28.985Z,101089.02
2018-05-04T08:22:57.325Z,101085.25
2018-05-04T08:25:25.684Z,101088.53
2018-05-04T08:27:54.090Z,101085.88
2018-05-04T08:30:22.394Z,101087.30
2018-05-04T08:32:50.763Z,101081.64
2018-05-04T08:35:19.162Z,101087.56
2018-05-04T08:37:51.958Z,101082.05
2018-05-04T08:40:27.345Z,101085.65
2018-05-04T08:42:55.749Z,101088.53
2018-05-04T08:45:24.030Z,101091.50
2018-05-04T08:47:53.164Z,101090.25
2018-05-04T08:50:22.217Z,101091.91
2018-05-04T08:52:51.243Z,101089.86
2018-05-04T08:55:20.293Z,101088.16
2018-05-04T08:57:48.638Z,101085.25
2018-05-04T09:00:16.996Z,101089.12
2018-05-04T09:02:45.300Z,101086.34
2018-05-04T09:05:14.567Z,101080.39
2018-05-04T09:07:42.881Z,101082.92
2018-05-04T09:10:11.489Z,101085.73
2018-05-04T09:12:39.807Z,101071.12
2018-05-04T09:15:08.156Z,101081.61
2018-05-04T09:17:36.452Z,101082.89
2018-05-04T09:20:04.812Z,101078.59
2018-05-04T09:22:33.102Z,101073.80
2018-05-04T09:25:01.388Z,101073.41
2018-05-04T09:27:29.676Z,101070.27
2018-05-04T09:30:04.608Z,101075.84
2018-05-04T09:32:33.679Z,101066.75
2018-05-04T09:35:02.789Z,101069.42
2018-05-04T09:37:31.093Z,101066.19
2018-05-04T09:40:00.196Z,101078.61
2018-05-04T09:42:28.640Z,101075.30
2018-05-04T09:44:56.929Z,101075.38
2018-05-04T09:47:29.225Z,101075.08
2018-05-04T09:49:57.548Z,101074.48
2018-05-04T09:52:26.766Z,101071.63
2018-05-04T09:54:55.086Z,101068.80
2018-05-04T09:57:24.321Z,101075.78
2018-05-04T09:59:52.625Z,101067.19
2018-05-04T10:02:20.992Z,101065.17
2018-05-04T10:04:49.265Z,101063.58
2018-05-04T10:07:17.693Z,101069.53
2018-05-04T10:09:46.032Z,101064.77
2018-05-04T10:12:14.353Z,101062.17
2018-05-04T10:14:45.470Z,101058.04
2018-05-04T10:17:14.606Z,101063.73
2018-05-04T10:19:43.482Z,101056.80
2018-05-04T10:22:12.561Z,101061.31
2018-05-04T10:24:41.839Z,101055.03
2018-05-04T10:27:10.151Z,101061.20
2018-05-04T10:29:38.756Z,101047.61
2018-05-04T10:32:07.127Z,101050.92
2018-05-04T10:34:35.471Z,101048.02
2018-05-04T10:37:03.828Z,101052.75
2018-05-04T10:39:32.223Z,101057.77
2018-05-04T10:42:00.553Z,101059.50
2018-05-04T10:44:28.921Z,101049.83
2018-05-04T10:46:57.258Z,101055.88
2018-05-04T10:49:25.685Z,101066.26
2018-05-04T10:51:54.093Z,101055.63
2018-05-04T10:54:23.031Z,101060.79
2018-05-04T10:56:51.386Z,101068.02
2018-05-04T10:59:19.693Z,101051.73
2018-05-04T11:01:47.981Z,101052.98
2018-05-04T11:04:16.991Z,101041.03
2018-05-04T11:06:46.712Z,101042.33
2018-05-04T11:09:16.259Z,101045.84
2018-05-04T11:11:45.540Z,101044.10
2018-05-04T11:14:17.777Z,101048.58
2018-05-04T11:16:46.136Z,101061.82
2018-05-04T11:19:14.498Z,101058.56
2018-05-04T11:21:44.902Z,101056.97
2018-05-04T11:24:13.265Z,101066.78
2018-05-04T11:26:41.573Z,101058.78
2018-05-04T11:29:11.765Z,101061.55
2018-05-04T11:31:40.069Z,101054.30
2018-05-04T11:34:09.146Z,101059.03
2018-05-04T11:36:37.428Z,101062.32
2018-05-04T11:39:06.148Z,101051.85
2018-05-04T11:41:36.063Z,101050.81
2018-05-04T11:44:09.041Z,101056.80
2018-05-04T11:46:38.177Z,101050.00
2018-05-04T11:49:14.677Z,101054.34
2018-05-04T11:51:43.275Z,101052.02
2018-05-04T11:54:11.668Z,101055.88
2018-05-04T11:56:40.804Z,101064.32
2018-05-04T11:59:09.220Z,101060.25
2018-05-04T12:01:37.523Z,101059.09
2018-05-04T12:04:06.624Z,101054.34
2018-05-04T12:06:34.966Z,101044.41
2018-05-04T12:09:03.420Z,101067.86
2018-05-04T12:11:31.834Z,101059.95
2018-05-04T12:14:00.142Z,101061.55
2018-05-04T12:16:29.478Z,101075.91
2018-05-04T12:18:57.769Z,101057.37
2018-05-04T12:21:26.820Z,101082.00
2018-05-04T12:23:56.133Z,101072.65
2018-05-04T12:26:25.260Z,101071.13
2018-05-04T12:28:53.606Z,101067.84
2018-05-04T12:31:22.026Z,101068.92
2018-05-04T12:33:50.404Z,101073.70
2018-05-04T12:36:18.789Z,101067.44
2018-05-04T12:38:47.902Z,101062.27
2018-05-04T12:41:17.285Z,101063.56
2018-05-04T12:43:45.959Z,101062.09
2018-05-04T12:46:14.929Z,101076.33
2018-05-04T12:48:44.587Z,101075.33
2018-05-04T12:51:13.642Z,101080.83
2018-05-04T12:53:43.611Z,101062.24
2018-05-04T12:56:18.594Z,101074.09
2018-05-04T12:58:47.808Z,101073.23
2018-05-04T13:01:17.080Z,101073.94
2018-05-04T13:03:46.169Z,101066.73
2018-05-04T13:06:20.421Z,101064.45
2018-05-04T13:08:52.908Z,101069.16
2018-05-04T13:11:21.319Z,101064.11
2018-05-04T13:13:50.735Z,101073.23
2018-05-04T13:16:24.044Z,101055.91
2018-05-04T13:18:53.072Z,101051.84
2018-05-04T13:21:21.369Z,101052.59
2018-05-04T13:23:49.710Z,101050.41
2018-05-04T13:26:19.567Z,101052.59
2018-05-04T13:28:57.202Z,101051.05
2018-05-04T13:31:26.744Z,101051.43
2018-05-04T13:33:55.291Z,101053.59
2018-05-04T13:36:24.118Z,101046.76
2018-05-04T13:38:52.763Z,101049.98
2018-05-04T13:41:21.636Z,101043.92
2018-05-04T13:43:54.325Z,101045.98
2018-05-04T13:46:24.327Z,101039.53
2018-05-04T13:48:54.382Z,101045.42
2018-05-04T13:51:27.035Z,101067.40
2018-05-04T13:53:56.184Z,101046.50
2018-05-04T13:56:24.554Z,101056.42
2018-05-04T13:58:57.036Z,101055.69
2018-05-04T14:01:30.194Z,101056.10
2018-05-04T14:03:59.303Z,101047.98
2018-05-04T14:06:28.391Z,101036.11
2018-05-04T14:08:56.816Z,101041.36
2018-05-04T14:11:31.224Z,101051.81
2018-05-04T14:14:04.423Z,101044.63
2018-05-04T14:16:33.557Z,101041.42
2018-05-04T14:19:02.769Z,101043.60
2018-05-04T14:21:35.892Z,101047.06
2018-05-04T14:24:05.641Z,101047.77
2018-05-04T14:26:40.390Z,101058.35
2018-05-04T14:29:15.624Z,101044.81
2018-05-04T14:31:51.595Z,101041.76
2018-05-04T14:34:20.217Z,101035.55
2018-05-04T14:36:49.487Z,101038.03
2018-05-04T14:39:19.975Z,101034.23
2018-05-04T14:41:49.694Z,101037.72
2018-05-04T14:44:23.230Z,101036.71
2018-05-04T14:46:56.073Z,101033.52
2018-05-04T14:49:25.757Z,101042.63
2018-05-04T14:51:55.594Z,101035.30
2018-05-04T15:07:25.023Z,101036.03
2018-05-04T15:09:54.691Z,101039.80
2018-05-04T15:12:23.077Z,101035.83
2018-05-04T15:14:51.449Z,101033.05
2018-05-04T15:17:19.817Z,101035.25
2018-05-04T15:19:48.200Z,101029.23
2018-05-04T15:22:16.652Z,101033.14
2018-05-04T15:24:45.624Z,101037.63
2018-05-04T15:27:14.667Z,101036.08
2018-05-04T15:29:43.642Z,101030.86
2018-05-04T15:32:17.825Z,101036.17
2018-05-04T15:34:47.443Z,101034.80
2018-05-04T15:37:16.254Z,101038.03
2018-05-04T15:39:44.633Z,101045.44
2018-05-04T15:42:12.950Z,101041.42
2018-05-04T15:44:41.254Z,101044.23
2018-05-04T15:47:10.502Z,101036.04
2018-05-04T15:49:38.896Z,101034.95
2018-05-04T15:52:11.218Z,101039.39
2018-05-04T15:54:39.639Z,101037.50
2018-05-04T15:57:08.033Z,101045.61
2018-05-04T15:59:37.189Z,101035.58
2018-05-04T16:02:06.309Z,101045.58
2018-05-04T16:04:34.690Z,101050.88
2018-05-04T16:07:03.175Z,101044.92
2018-05-04T16:09:31.516Z,101047.38
2018-05-04T16:11:59.910Z,101048.13
2018-05-04T16:14:28.287Z,101035.45
2018-05-04T16:16:57.554Z,101054.70
2018-05-04T16:19:26.802Z,101054.49
2018-05-04T16:21:59.402Z,101048.44
2018-05-04T16:24:27.758Z,101039.32
2018-05-04T16:26:57.131Z,101045.88
2018-05-04T16:29:26.313Z,101043.73
2018-05-04T16:31:55.727Z,101046.48
2018-05-04T16:34:24.129Z,101040.24
2018-05-04T16:36:52.644Z,101033.27
2018-05-04T16:39:21.080Z,101048.39
2018-05-04T16:41:50.391Z,101051.06
2018-05-04T16:44:18.744Z,101042.87
2018-05-04T16:46:54.998Z,101030.52
2018-05-04T16:49:28.378Z,101031.59
2018-05-04T16:51:57.546Z,101035.30
2018-05-04T16:54:25.946Z,101033.73
2018-05-04T16:56:54.775Z,101037.50
2018-05-04T16:59:23.201Z,101034.73
2018-05-04T17:01:56.405Z,101033.71
2018-05-04T17:04:29.289Z,101044.46
2018-05-04T17:06:57.699Z,101034.23
2018-05-04T17:09:26.904Z,101039.47
2018-05-04T17:12:10.293Z,101042.12
2018-05-04T17:14:38.844Z,101040.09
2018-05-04T17:17:07.254Z,101043.41
2018-05-04T17:19:35.806Z,101040.02
2018-05-04T17:22:04.286Z,101045.75
2018-05-04T17:24:33.478Z,101046.08
2018-05-04T17:27:01.962Z,101050.08
2018-05-04T17:29:30.468Z,101061.59
2018-05-04T17:31:58.952Z,101053.51
2018-05-04T17:34:28.237Z,101052.55
2018-05-04T17:36:57.256Z,101053.16
2018-05-04T17:39:26.415Z,101057.86
2018-05-04T17:41:55.019Z,101056.63
2018-05-04T17:44:23.628Z,101057.20
2018-05-04T17:46:52.168Z,101065.09
2018-05-04T17:49:21.639Z,101066.33
2018-05-04T17:51:51.672Z,101064.48
2018-05-04T17:54:21.002Z,101076.55
2018-05-04T17:56:49.603Z,101068.03
2018-05-04T17:59:18.216Z,101076.45
2018-05-04T18:01:48.375Z,101078.21
2018-05-04T18:04:16.935Z,101085.09
2018-05-04T18:06:46.213Z,101085.06
2018-05-04T18:09:14.667Z,101091.08
2018-05-04T18:11:43.045Z,101092.59
2018-05-04T18:14:18.590Z,101091.39
2018-05-04T18:16:47.992Z,101093.95
2018-05-04T18:19:17.600Z,101097.45
2018-05-04T18:21:45.991Z,101092.02
2018-05-04T18:24:16.523Z,101102.64
2018-05-04T18:26:44.944Z,101098.80
2018-05-04T18:29:17.679Z,101098.98
2018-05-04T18:31:49.277Z,101103.49
2018-05-04T18:34:18.484Z,101102.19
2018-05-04T18:36:47.606Z,101111.11
2018-05-04T18:39:16.776Z,101113.20
2018-05-04T18:41:46.637Z,101120.26
2018-05-04T18:44:15.983Z,101119.30
2018-05-04T18:46:44.511Z,101131.75
2018-05-04T18:49:12.954Z,101130.62
2018-05-04T18:51:42.201Z,101138.77
2018-05-04T18:54:10.697Z,101146.09
2018-05-04T18:56:43.085Z,101144.45
2018-05-04T18:59:11.514Z,101153.36
2018-05-04T19:01:44.076Z,101148.91
2018-05-04T19:04:14.140Z,101143.52
2018-05-04T19:06:42.687Z,101150.38
2018-05-04T19:09:11.130Z,101151.28
2018-05-04T19:11:44.372Z,101156.88
2018-05-04T19:14:13.554Z,101160.86
2018-05-04T19:16:42.694Z,101163.96
2018-05-04T19:19:11.142Z,101165.61
2018-05-04T19:21:40.303Z,101167.05
2018-05-04T19:24:09.060Z,101173.98
2018-05-04T19:26:37.489Z,101177.09
2018-05-04T19:29:07.179Z,101179.31
2018-05-04T19:31:36.200Z,101179.33
2018-05-04T19:34:05.672Z,101176.31
2018-05-04T19:36:34.095Z,101184.09
2018-05-04T19:39:03.257Z,101180.61
2018-05-04T19:41:31.743Z,101178.09
2018-05-04T19:44:01.729Z,101179.86
2018-05-04T19:46:30.187Z,101186.97
2018-05-04T19:48:58.791Z,101178.68
2018-05-04T19:51:27.281Z,101187.98
2018-05-04T19:53:56.371Z,101192.22
2018-05-04T19:56:25.553Z,101192.05
2018-05-04T19:58:58.406Z,101202.86
2018-05-04T20:01:27.676Z,101203.83
2018-05-04T20:03:56.181Z,101204.42
2018-05-04T20:06:25.361Z,101207.73
2018-05-04T20:08:53.827Z,101210.32
2018-05-04T20:11:22.959Z,101211.88
2018-05-04T20:13:52.145Z,101213.86
2018-05-04T20:16:21.817Z,101215.83
2018-05-04T20:18:50.600Z,101216.03
2018-05-04T20:21:19.018Z,101211.30
2018-05-04T20:23:47.483Z,101212.75
2018-05-04T20:26:17.062Z,101216.67
2018-05-04T20:28:45.515Z,101205.46
2018-05-04T20:31:14.046Z,101211.95
2018-05-04T20:33:42.551Z,101207.20
2018-05-04T20:36:11.957Z,101211.52
2018-05-04T20:38:44.675Z,101215.73
2018-05-04T20:41:13.200Z,101212.45
2018-05-04T20:43:41.625Z,101217.59
2018-05-04T20:46:10.902Z,101211.24
2018-05-04T20:48:40.214Z,101215.44
2018-05-04T20:51:09.785Z,101211.84
2018-05-04T20:53:38.361Z,101212.86
2018-05-04T20:56:10.766Z,101220.59
2018-05-04T20:58:39.375Z,101224.70
2018-05-04T21:01:08.548Z,101216.47
2018-05-04T21:03:36.932Z,101215.63
2018-05-04T21:06:06.272Z,101213.98
2018-05-04T21:08:35.225Z,101219.45
2018-05-04T21:11:03.586Z,101221.07
2018-05-04T21:13:32.010Z,101228.05
2018-05-04T21:16:01.247Z,101227.66
2018-05-04T21:18:29.658Z,101230.10
2018-05-04T21:20:58.045Z,101225.79
2018-05-04T21:23:26.504Z,101221.91
2018-05-04T21:25:59.141Z,101226.41
2018-05-04T21:28:27.799Z,101227.14
2018-05-04T21:30:56.278Z,101233.17
2018-05-04T21:33:26.355Z,101235.12
2018-05-04T21:35:54.838Z,101238.85
2018-05-04T21:38:23.281Z,101237.72
2018-05-04T21:40:52.392Z,101238.83
2018-05-04T21:43:24.975Z,101233.92
2018-05-04T21:45:53.442Z,101239.61
2018-05-04T21:48:21.854Z,101248.22
2018-05-04T21:50:50.237Z,101242.73
2018-05-04T21:53:42.631Z,101251.43
2018-05-04T21:56:37.857Z,101250.27
2018-05-04T21:59:20.204Z,101246.37
2018-05-04T22:01:56.896Z,101241.17
2018-05-04T22:04:50.563Z,101247.41
2018-05-04T22:07:19.358Z,101242.45
2018-05-04T22:09:52.012Z,101249.23
2018-05-04T22:12:28.695Z,101245.14
2018-05-04T22:14:57.121Z,101250.08
2018-05-04T22:17:26.433Z,101251.11
2018-05-04T22:19:55.423Z,101253.16
2018-05-04T22:22:23.835Z,101261.40
2018-05-04T22:24:52.181Z,101253.47
2018-05-04T22:27:20.995Z,101258.12
2018-05-04T22:29:57.561Z,101253.98
2018-05-04T22:32:26.699Z,101259.35
2018-05-04T22:34:55.029Z,101260.41
2018-05-04T22:37:24.647Z,101258.67
2018-05-04T22:39:53.318Z,101269.73
2018-05-04T22:42:22.662Z,101269.89
2018-05-04T22:44:51.068Z,101266.56
2018-05-04T22:47:20.355Z,101268.34
2018-05-04T22:49:48.965Z,101275.17
2018-05-04T22:52:18.487Z,101272.00
2018-05-04T22:54:47.780Z,101269.33
2018-05-04T22:57:16.939Z,101269.23
2018-05-04T22:59:49.484Z,101265.29
2018-05-04T23:02:17.882Z,101268.55
2018-05-04T23:04:46.274Z,101266.26
2018-05-04T23:07:15.537Z,101268.60
2018-05-04T23:09:44.774Z,101273.58
2018-05-04T23:12:13.198Z,101271.80
2018-05-04T23:14:41.653Z,101271.75
2018-05-04T23:17:10.840Z,101270.45
2018-05-04T23:19:39.326Z,101273.19
2018-05-04T23:22:08.613Z,101268.27
2018-05-04T23:24:37.173Z,101266.53
2018-05-04T23:27:05.844Z,101267.40
2018-05-04T23:29:35.024Z,101264.58
2018-05-04T23:32:07.776Z,101266.38
2018-05-04T23:34:37.213Z,101268.67
2018-05-04T23:37:06.783Z,101268.13
2018-05-04T23:39:35.949Z,101268.88
2018-05-04T23:42:04.537Z,101270.58
2018-05-04T23:44:33.170Z,101276.42
2018-05-04T23:47:02.521Z,101275.69
2018-05-04T23:49:31.176Z,101283.46
2018-05-04T23:51:59.844Z,101287.77
2018-05-04T23:54:33.483Z,101293.60
2018-05-04T23:57:02.231Z,101292.68
2018-05-04T23:59:32.273Z,101287.39
